Terminal Aerodrome Forecast
Issued by NWS Sioux Falls, SD

Home | Current Version | Previous Version | Graphics & Text | Print | Product List | Glossary On
Versions: 1 2 3 4 5 6 7 8 9 10 11 12 13 14 15
000
FTUS43 KFSD 271831 RRA
TAFHON
TAF
KHON 271831Z 2719/2818 03005KT P6SM FEW250
     FM280000 VRB03KT P6SM SCT200
     FM281100 36008KT P6SM SCT040 BKN070=

USA.gov is the U.S. government's official web portal to all federal, state and local government web resources and services.